sensor_id;sensor_type;location;lat;lon;timestamp;pressure;altitude;pressure_sealevel;temperature;humidity
21100;BME280;10708;50.824;4.408;2023-02-03T00:02:42;101750.34;;;9.44;100.00
21100;BME280;10708;50.824;4.408;2023-02-03T00:07:45;101749.50;;;9.40;100.00
21100;BME280;10708;50.824;4.408;2023-02-03T00:12:47;101740.78;;;9.38;100.00
21100;BME280;10708;50.824;4.408;2023-02-03T00:17:52;101724.06;;;9.41;100.00
21100;BME280;10708;50.824;4.408;2023-02-03T00:22:54;101720.56;;;9.42;100.00
21100;BME280;10708;50.824;4.408;2023-02-03T00:28:03;101717.94;;;9.40;100.00
21100;BME280;10708;50.824;4.408;2023-02-03T00:33:07;101726.66;;;9.45;100.00
21100;BME280;10708;50.824;4.408;2023-02-03T00:38:10;101729.28;;;9.45;100.00
21100;BME280;10708;50.824;4.408;2023-02-03T00:43:12;101731.00;;;9.48;100.00
21100;BME280;10708;50.824;4.408;2023-02-03T00:48:15;101733.66;;;9.48;100.00
21100;BME280;10708;50.824;4.408;2023-02-03T00:53:18;101738.06;;;9.43;100.00
21100;BME280;10708;50.824;4.408;2023-02-03T00:58:21;101760.94;;;9.36;100.00
21100;BME280;10708;50.824;4.408;2023-02-03T01:03:25;101759.09;;;9.44;100.00
21100;BME280;10708;50.824;4.408;2023-02-03T01:08:27;101794.13;;;9.48;100.00
21100;BME280;10708;50.824;4.408;2023-02-03T01:13:32;101794.94;;;9.51;100.00
21100;BME280;10708;50.824;4.408;2023-02-03T01:18:36;101801.09;;;9.50;100.00
21100;BME280;10708;50.824;4.408;2023-02-03T01:23:38;101807.22;;;9.52;100.00
21100;BME280;10708;50.824;4.408;2023-02-03T01:28:41;101801.94;;;9.54;100.00
21100;BME280;10708;50.824;4.408;2023-02-03T01:33:45;101800.19;;;9.54;100.00
21100;BME280;10708;50.824;4.408;2023-02-03T01:38:48;101795.78;;;9.55;100.00
21100;BME280;10708;50.824;4.408;2023-02-03T01:43:52;101801.97;;;9.51;100.00
21100;BME280;10708;50.824;4.408;2023-02-03T01:49:00;101808.91;;;9.58;100.00
21100;BME280;10708;50.824;4.408;2023-02-03T01:54:06;101816.06;;;9.45;100.00
21100;BME280;10708;50.824;4.408;2023-02-03T01:59:12;101798.41;;;9.55;100.00
21100;BME280;10708;50.824;4.408;2023-02-03T02:04:19;101804.53;;;9.57;100.00
21100;BME280;10708;50.824;4.408;2023-02-03T02:09:22;101800.94;;;9.62;100.00
21100;BME280;10708;50.824;4.408;2023-02-03T02:14:24;101793.97;;;9.60;100.00
21100;BME280;10708;50.824;4.408;2023-02-03T02:19:47;101791.31;;;9.61;100.00
21100;BME280;10708;50.824;4.408;2023-02-03T02:25:15;101800.06;;;9.63;100.00
21100;BME280;10708;50.824;4.408;2023-02-03T02:36:03;101768.59;;;9.57;100.00
21100;BME280;10708;50.824;4.408;2023-02-03T02:41:14;101770.28;;;9.60;100.00
21100;BME280;10708;50.824;4.408;2023-02-03T02:46:24;101755.34;;;9.63;100.00
21100;BME280;10708;50.824;4.408;2023-02-03T02:51:31;101754.47;;;9.65;100.00
21100;BME280;10708;50.824;4.408;2023-02-03T02:56:35;101755.31;;;9.67;100.00
21100;BME280;10708;50.824;4.408;2023-02-03T03:01:39;101756.22;;;9.62;100.00
21100;BME280;10708;50.824;4.408;2023-02-03T03:06:45;101757.06;;;9.68;100.00
21100;BME280;10708;50.824;4.408;2023-02-03T03:11:50;101759.69;;;9.68;100.00
21100;BME280;10708;50.824;4.408;2023-02-03T03:16:59;101776.38;;;9.63;100.00
21100;BME280;10708;50.824;4.408;2023-02-03T03:22:06;101766.72;;;9.67;100.00
21100;BME280;10708;50.824;4.408;2023-02-03T03:27:13;101753.50;;;9.70;100.00
21100;BME280;10708;50.824;4.408;2023-02-03T03:32:18;101757.06;;;9.68;100.00
21100;BME280;10708;50.824;4.408;2023-02-03T03:37:28;101756.25;;;9.61;100.00
21100;BME280;10708;50.824;4.408;2023-02-03T03:42:36;101771.13;;;9.65;100.00
21100;BME280;10708;50.824;4.408;2023-02-03T03:47:45;101768.47;;;9.65;100.00
21100;BME280;10708;50.824;4.408;2023-02-03T03:52:50;101790.44;;;9.62;100.00
21100;BME280;10708;50.824;4.408;2023-02-03T03:57:57;101779.88;;;9.64;100.00
21100;BME280;10708;50.824;4.408;2023-02-03T04:03:05;101795.75;;;9.58;100.00
21100;BME280;10708;50.824;4.408;2023-02-03T04:08:10;101780.03;;;9.53;100.00
21100;BME280;10708;50.824;4.408;2023-02-03T04:13:13;101766.00;;;9.53;100.00
21100;BME280;10708;50.824;4.408;2023-02-03T04:18:17;101753.59;;;9.64;100.00
21100;BME280;10708;50.824;4.408;2023-02-03T04:23:20;101760.59;;;9.65;100.00
21100;BME280;10708;50.824;4.408;2023-02-03T04:28:23;101753.56;;;9.66;100.00
21100;BME280;10708;50.824;4.408;2023-02-03T04:33:25;101760.56;;;9.67;100.00
21100;BME280;10708;50.824;4.408;2023-02-03T04:38:29;101748.31;;;9.66;100.00
21100;BME280;10708;50.824;4.408;2023-02-03T04:43:33;101755.38;;;9.59;100.00
21100;BME280;10708;50.824;4.408;2023-02-03T04:48:35;101769.47;;;9.56;100.00
21100;BME280;10708;50.824;4.408;2023-02-03T04:53:39;101752.72;;;9.63;100.00
21100;BME280;10708;50.824;4.408;2023-02-03T04:58:41;101762.38;;;9.63;100.00
21100;BME280;10708;50.824;4.408;2023-02-03T05:03:44;101754.50;;;9.60;100.00
21100;BME280;10708;50.824;4.408;2023-02-03T05:08:47;101773.88;;;9.54;100.00
21100;BME280;10708;50.824;4.408;2023-02-03T05:13:50;101776.41;;;9.62;100.00
21100;BME280;10708;50.824;4.408;2023-02-03T05:18:52;101779.91;;;9.61;100.00
21100;BME280;10708;50.824;4.408;2023-02-03T05:23:56;101789.63;;;9.57;100.00
21100;BME280;10708;50.824;4.408;2023-02-03T05:28:58;101785.19;;;9.61;100.00
21100;BME280;10708;50.824;4.408;2023-02-03T05:34:00;101786.06;;;9.60;100.00
21100;BME280;10708;50.824;4.408;2023-02-03T05:39:04;101781.78;;;9.54;100.00
21100;BME280;10708;50.824;4.408;2023-02-03T05:44:07;101778.28;;;9.52;100.00
21100;BME280;10708;50.824;4.408;2023-02-03T05:49:09;101784.31;;;9.59;100.00
21100;BME280;10708;50.824;4.408;2023-02-03T05:54:13;101790.53;;;9.55;100.00
21100;BME280;10708;50.824;4.408;2023-02-03T05:59:15;101800.09;;;9.59;100.00
21100;BME280;10708;50.824;4.408;2023-02-03T06:04:18;101812.47;;;9.51;100.00
21100;BME280;10708;50.824;4.408;2023-02-03T06:09:22;101811.50;;;9.59;100.00
21100;BME280;10708;50.824;4.408;2023-02-03T06:14:24;101812.34;;;9.63;100.00
21100;BME280;10708;50.824;4.408;2023-02-03T06:19:28;101815.00;;;9.60;100.00
21100;BME280;10708;50.824;4.408;2023-02-03T06:24:32;101807.94;;;9.67;100.00
21100;BME280;10708;50.824;4.408;2023-02-03T06:29:34;101785.16;;;9.64;100.00
21100;BME280;10708;50.824;4.408;2023-02-03T06:34:36;101788.66;;;9.63;100.00
21100;BME280;10708;50.824;4.408;2023-02-03T06:39:40;101793.09;;;9.59;100.00
21100;BME280;10708;50.824;4.408;2023-02-03T06:44:42;101797.44;;;9.62;100.00
21100;BME280;10708;50.824;4.408;2023-02-03T06:49:44;101798.31;;;9.64;100.00
21100;BME280;10708;50.824;4.408;2023-02-03T06:54:48;101793.94;;;9.63;100.00
21100;BME280;10708;50.824;4.408;2023-02-03T06:59:51;101801.81;;;9.63;100.00
21100;BME280;10708;50.824;4.408;2023-02-03T07:04:53;101807.94;;;9.63;100.00
21100;BME280;10708;50.824;4.408;2023-02-03T07:09:57;101802.72;;;9.62;100.00
21100;BME280;10708;50.824;4.408;2023-02-03T07:14:59;101812.31;;;9.65;100.00
21100;BME280;10708;50.824;4.408;2023-02-03T07:20:02;101828.97;;;9.68;100.00
21100;BME280;10708;50.824;4.408;2023-02-03T07:25:07;101827.16;;;9.70;100.00
21100;BME280;10708;50.824;4.408;2023-02-03T07:30:10;101821.00;;;9.71;100.00
21100;BME280;10708;50.824;4.408;2023-02-03T07:35:14;101817.50;;;9.71;100.00
21100;BME280;10708;50.824;4.408;2023-02-03T07:40:18;101795.59;;;9.70;100.00
21100;BME280;10708;50.824;4.408;2023-02-03T07:45:21;101798.16;;;9.75;100.00
21100;BME280;10708;50.824;4.408;2023-02-03T07:50:24;101813.09;;;9.73;100.00
21100;BME280;10708;50.824;4.408;2023-02-03T07:55:28;101852.56;;;9.73;100.00
21100;BME280;10708;50.824;4.408;2023-02-03T08:00:30;101842.16;;;9.63;100.00
21100;BME280;10708;50.824;4.408;2023-02-03T08:05:33;101856.19;;;9.61;100.00
21100;BME280;10708;50.824;4.408;2023-02-03T08:10:37;101874.50;;;9.70;100.00
21100;BME280;10708;50.824;4.408;2023-02-03T08:15:39;101864.06;;;9.66;100.00
21100;BME280;10708;50.824;4.408;2023-02-03T08:20:42;101850.81;;;9.72;100.00
21100;BME280;10708;50.824;4.408;2023-02-03T08:25:49;101869.31;;;9.64;100.00
21100;BME280;10708;50.824;4.408;2023-02-03T08:30:52;101879.88;;;9.61;100.00
21100;BME280;10708;50.824;4.408;2023-02-03T08:35:56;101887.63;;;9.73;100.00
21100;BME280;10708;50.824;4.408;2023-02-03T08:41:07;101862.97;;;9.82;100.00
21100;BME280;10708;50.824;4.408;2023-02-03T08:46:11;101848.06;;;9.82;100.00
21100;BME280;10708;50.824;4.408;2023-02-03T08:51:15;101859.44;;;9.86;100.00
21100;BME280;10708;50.824;4.408;2023-02-03T08:56:19;101867.19;;;9.98;100.00
21100;BME280;10708;50.824;4.408;2023-02-03T09:01:21;101885.53;;;10.01;100.00
21100;BME280;10708;50.824;4.408;2023-02-03T09:06:24;101882.91;;;10.01;100.00
21100;BME280;10708;50.824;4.408;2023-02-03T09:11:27;101894.22;;;10.09;100.00
21100;BME280;10708;50.824;4.408;2023-02-03T09:16:30;101904.78;;;10.08;100.00
21100;BME280;10708;50.824;4.408;2023-02-03T09:21:32;101911.97;;;9.93;100.00
21100;BME280;10708;50.824;4.408;2023-02-03T09:26:36;101922.34;;;10.06;100.00
21100;BME280;10708;50.824;4.408;2023-02-03T09:31:38;101923.09;;;10.18;100.00
21100;BME280;10708;50.824;4.408;2023-02-03T09:36:41;101939.69;;;10.26;100.00
21100;BME280;10708;50.824;4.408;2023-02-03T09:42:15;101929.25;;;10.16;100.00
21100;BME280;10708;50.824;4.408;2023-02-03T09:47:23;101934.50;;;10.16;100.00
21100;BME280;10708;50.824;4.408;2023-02-03T09:52:30;101943.19;;;10.25;100.00
21100;BME280;10708;50.824;4.408;2023-02-03T09:57:41;101936.09;;;10.29;100.00
21100;BME280;10708;50.824;4.408;2023-02-03T10:02:55;101939.72;;;10.22;100.00
21100;BME280;10708;50.824;4.408;2023-02-03T10:08:05;101939.69;;;10.25;100.00
21100;BME280;10708;50.824;4.408;2023-02-03T10:13:18;101948.31;;;10.38;100.00
21100;BME280;10708;50.824;4.408;2023-02-03T10:18:28;101937.78;;;10.36;100.00
21100;BME280;10708;50.824;4.408;2023-02-03T10:23:35;101932.34;;;10.48;100.00
21100;BME280;10708;50.824;4.408;2023-02-03T10:28:45;101926.38;;;10.37;100.00
21100;BME280;10708;50.824;4.408;2023-02-03T10:34:00;101934.97;;;10.48;100.00
21100;BME280;10708;50.824;4.408;2023-02-03T10:39:15;101936.69;;;10.51;100.00
21100;BME280;10708;50.824;4.408;2023-02-03T10:44:28;101956.75;;;10.61;100.00
21100;BME280;10708;50.824;4.408;2023-02-03T10:49:32;101938.31;;;10.62;100.00
21100;BME280;10708;50.824;4.408;2023-02-03T10:54:35;101952.09;;;10.78;100.00
21100;BME280;10708;50.824;4.408;2023-02-03T10:59:41;101955.84;;;10.63;100.00
21100;BME280;10708;50.824;4.408;2023-02-03T11:04:44;101939.03;;;10.72;100.00
21100;BME280;10708;50.824;4.408;2023-02-03T11:09:47;101947.06;;;10.63;100.00
21100;BME280;10708;50.824;4.408;2023-02-03T11:14:52;101977.69;;;10.73;100.00
21100;BME280;10708;50.824;4.408;2023-02-03T11:20:00;101974.53;;;10.47;100.00
21100;BME280;10708;50.824;4.408;2023-02-03T11:25:16;101971.09;;;10.40;100.00
21100;BME280;10708;50.824;4.408;2023-02-03T11:30:23;101968.41;;;10.46;100.00
21100;BME280;10708;50.824;4.408;2023-02-03T11:35:27;101960.56;;;10.39;100.00
21100;BME280;10708;50.824;4.408;2023-02-03T11:40:32;101984.22;;;10.43;100.00
21100;BME280;10708;50.824;4.408;2023-02-03T11:45:41;101960.63;;;10.35;100.00
21100;BME280;10708;50.824;4.408;2023-02-03T11:50:48;101967.91;;;10.09;100.00
21100;BME280;10708;50.824;4.408;2023-02-03T11:56:04;101960.28;;;9.88;100.00
21100;BME280;10708;50.824;4.408;2023-02-03T12:01:16;101962.75;;;10.00;100.00
21100;BME280;10708;50.824;4.408;2023-02-03T12:12:02;101958.34;;;10.04;100.00
21100;BME280;10708;50.824;4.408;2023-02-03T12:17:37;101966.13;;;10.13;100.00
21100;BME280;10708;50.824;4.408;2023-02-03T12:22:48;101975.59;;;10.30;100.00
21100;BME280;10708;50.824;4.408;2023-02-03T12:28:05;101979.94;;;10.34;100.00
21100;BME280;10708;50.824;4.408;2023-02-03T12:33:16;101981.75;;;10.29;100.00
21100;BME280;10708;50.824;4.408;2023-02-03T12:38:28;101973.72;;;10.40;100.00
21100;BME280;10708;50.824;4.408;2023-02-03T12:43:35;101976.34;;;10.40;100.00
21100;BME280;10708;50.824;4.408;2023-02-03T12:48:46;101973.66;;;10.48;100.00
21100;BME280;10708;50.824;4.408;2023-02-03T12:53:55;101971.81;;;10.53;100.00
21100;BME280;10708;50.824;4.408;2023-02-03T12:59:02;101968.09;;;10.67;100.00
21100;BME280;10708;50.824;4.408;2023-02-03T13:04:14;101965.41;;;10.69;100.00
21100;BME280;10708;50.824;4.408;2023-02-03T13:09:26;101957.47;;;10.73;100.00
21100;BME280;10708;50.824;4.408;2023-02-03T13:14:33;101965.41;;;10.70;100.00
21100;BME280;10708;50.824;4.408;2023-02-03T13:19:46;101961.88;;;10.73;100.00
21100;BME280;10708;50.824;4.408;2023-02-03T13:24:54;101952.94;;;10.83;100.00
21100;BME280;10708;50.824;4.408;2023-02-03T13:30:08;101958.06;;;10.92;100.00
21100;BME280;10708;50.824;4.408;2023-02-03T13:35:29;101952.94;;;10.83;100.00
21100;BME280;10708;50.824;4.408;2023-02-03T13:40:47;101958.97;;;10.90;100.00
21100;BME280;10708;50.824;4.408;2023-02-03T13:45:52;101948.19;;;11.06;100.00
21100;BME280;10708;50.824;4.408;2023-02-03T13:51:12;101950.59;;;11.20;100.00
21100;BME280;10708;50.824;4.408;2023-02-03T13:56:19;101947.41;;;11.00;100.00
21100;BME280;10708;50.824;4.408;2023-02-03T14:01:29;101957.13;;;10.96;100.00
21100;BME280;10708;50.824;4.408;2023-02-03T14:07:01;101958.06;;;10.92;100.00
21100;BME280;10708;50.824;4.408;2023-02-03T14:23:15;101958.78;;;11.03;100.00
21100;BME280;10708;50.824;4.408;2023-02-03T14:28:21;101957.91;;;11.01;100.00
21100;BME280;10708;50.824;4.408;2023-02-03T14:33:51;101978.13;;;11.01;100.00
21100;BME280;10708;50.824;4.408;2023-02-03T14:39:00;101975.44;;;11.07;100.00
21100;BME280;10708;50.824;4.408;2023-02-03T14:44:08;101975.34;;;11.12;100.00
21100;BME280;10708;50.824;4.408;2023-02-03T14:49:40;101980.56;;;11.15;100.00
21100;BME280;10708;50.824;4.408;2023-02-03T14:54:58;101985.06;;;11.08;100.00
21100;BME280;10708;50.824;4.408;2023-02-03T15:00:23;101981.59;;;11.06;100.00
21100;BME280;10708;50.824;4.408;2023-02-03T15:05:36;101992.06;;;11.09;100.00
21100;BME280;10708;50.824;4.408;2023-02-03T15:10:44;101984.25;;;11.04;100.00
21100;BME280;10708;50.824;4.408;2023-02-03T15:15:48;102010.63;;;11.04;100.00
21100;BME280;10708;50.824;4.408;2023-02-03T15:20:53;101992.06;;;11.09;100.00
21100;BME280;10708;50.824;4.408;2023-02-03T15:25:59;101986.03;;;11.02;100.00
21100;BME280;10708;50.824;4.408;2023-02-03T15:31:05;101997.47;;;11.00;100.00
21100;BME280;10708;50.824;4.408;2023-02-03T15:36:14;102005.25;;;11.09;100.00
21100;BME280;10708;50.824;4.408;2023-02-03T15:41:23;102004.47;;;11.04;100.00
21100;BME280;10708;50.824;4.408;2023-02-03T15:46:28;102017.69;;;11.01;100.00
21100;BME280;10708;50.824;4.408;2023-02-03T15:51:39;102028.28;;;10.98;100.00
21100;BME280;10708;50.824;4.408;2023-02-03T15:56:47;102037.91;;;10.99;100.00
21100;BME280;10708;50.824;4.408;2023-02-03T16:01:57;102031.88;;;10.91;100.00
21100;BME280;10708;50.824;4.408;2023-02-03T16:07:00;102027.41;;;10.97;100.00
21100;BME280;10708;50.824;4.408;2023-02-03T16:12:14;102032.66;;;10.99;100.00
21100;BME280;10708;50.824;4.408;2023-02-03T16:17:29;102045.78;;;11.03;100.00
21100;BME280;10708;50.824;4.408;2023-02-03T16:22:36;102043.13;;;11.03;100.00
21100;BME280;10708;50.824;4.408;2023-02-03T16:27:43;102048.53;;;10.96;100.00
21100;BME280;10708;50.824;4.408;2023-02-03T16:32:59;102047.50;;;11.07;100.00
21100;BME280;10708;50.824;4.408;2023-02-03T16:38:19;102056.41;;;10.97;100.00
21100;BME280;10708;50.824;4.408;2023-02-03T16:43:44;102073.16;;;10.92;100.00
21100;BME280;10708;50.824;4.408;2023-02-03T16:49:05;102077.56;;;10.91;100.00
21100;BME280;10708;50.824;4.408;2023-02-03T16:54:27;102075.78;;;10.93;100.00
21100;BME280;10708;50.824;4.408;2023-02-03T16:59:32;102063.47;;;10.97;100.00
21100;BME280;10708;50.824;4.408;2023-02-03T17:04:34;102081.94;;;10.94;100.00
21100;BME280;10708;50.824;4.408;2023-02-03T17:09:37;102078.34;;;10.99;100.00
21100;BME280;10708;50.824;4.408;2023-02-03T17:14:41;102095.00;;;11.03;100.00
21100;BME280;10708;50.824;4.408;2023-02-03T17:19:45;102114.41;;;10.97;100.00
21100;BME280;10708;50.824;4.408;2023-02-03T17:24:49;102101.41;;;10.82;100.00
21100;BME280;10708;50.824;4.408;2023-02-03T17:29:53;102097.00;;;10.86;100.00
21100;BME280;10708;50.824;4.408;2023-02-03T17:34:56;102100.41;;;10.91;100.00
21100;BME280;10708;50.824;4.408;2023-02-03T17:39:59;102104.91;;;10.84;100.00
21100;BME280;10708;50.824;4.408;2023-02-03T17:45:05;102122.53;;;10.79;100.00
21100;BME280;10708;50.824;4.408;2023-02-03T17:50:08;102120.19;;;10.56;100.00
21100;BME280;10708;50.824;4.408;2023-02-03T17:55:11;102130.72;;;10.55;100.00
21100;BME280;10708;50.824;4.408;2023-02-03T18:00:15;102132.38;;;10.65;100.00
21100;BME280;10708;50.824;4.408;2023-02-03T18:05:18;102156.13;;;10.60;100.00
21100;BME280;10708;50.824;4.408;2023-02-03T18:10:20;102155.34;;;10.52;100.00
21100;BME280;10708;50.824;4.408;2023-02-03T18:15:24;102164.94;;;10.58;100.00
21100;BME280;10708;50.824;4.408;2023-02-03T18:20:26;102166.53;;;10.72;100.00
21100;BME280;10708;50.824;4.408;2023-02-03T18:25:29;102173.56;;;10.72;100.00
21100;BME280;10708;50.824;4.408;2023-02-03T18:30:32;102184.09;;;10.73;100.00
21100;BME280;10708;50.824;4.408;2023-02-03T18:35:36;102178.06;;;10.64;100.00
21100;BME280;10708;50.824;4.408;2023-02-03T18:40:39;102182.44;;;10.66;100.00
21100;BME280;10708;50.824;4.408;2023-02-03T18:45:43;102186.72;;;10.73;100.00
21100;BME280;10708;50.824;4.408;2023-02-03T18:50:45;102199.06;;;10.68;100.00
21100;BME280;10708;50.824;4.408;2023-02-03T18:55:48;102200.72;;;10.79;100.00
21100;BME280;10708;50.824;4.408;2023-02-03T19:00:52;102211.47;;;10.59;100.00
21100;BME280;10708;50.824;4.408;2023-02-03T19:05:55;102217.69;;;10.52;100.00
21100;BME280;10708;50.824;4.408;2023-02-03T19:10:58;102212.31;;;10.62;100.00
21100;BME280;10708;50.824;4.408;2023-02-03T19:16:02;102217.56;;;10.64;100.00
21100;BME280;10708;50.824;4.408;2023-02-03T19:21:05;102224.59;;;10.65;100.00
21100;BME280;10708;50.824;4.408;2023-02-03T19:26:09;102238.84;;;10.41;100.00
21100;BME280;10708;50.824;4.408;2023-02-03T19:31:14;102239.72;;;10.42;100.00
21100;BME280;10708;50.824;4.408;2023-02-03T19:36:18;102249.28;;;10.55;100.00
21100;BME280;10708;50.824;4.408;2023-02-03T19:41:23;102238.78;;;10.49;100.00
21100;BME280;10708;50.824;4.408;2023-02-03T19:46:28;102242.34;;;10.48;100.00
21100;BME280;10708;50.824;4.408;2023-02-03T19:51:34;102245.88;;;10.39;100.00
21100;BME280;10708;50.824;4.408;2023-02-03T19:56:36;102248.53;;;10.39;100.00
21100;BME280;10708;50.824;4.408;2023-02-03T20:01:41;102242.44;;;10.35;100.00
21100;BME280;10708;50.824;4.408;2023-02-03T20:06:43;102237.88;;;10.53;100.00
21100;BME280;10708;50.824;4.408;2023-02-03T20:11:46;102240.59;;;10.45;100.00
21100;BME280;10708;50.824;4.408;2023-02-03T20:16:49;102233.56;;;10.46;100.00
21100;BME280;10708;50.824;4.408;2023-02-03T20:21:52;102251.22;;;10.36;100.00
21100;BME280;10708;50.824;4.408;2023-02-03T20:26:54;102250.44;;;10.17;100.00
21100;BME280;10708;50.824;4.408;2023-02-03T20:31:58;102254.91;;;10.05;100.00
21100;BME280;10708;50.824;4.408;2023-02-03T20:37:00;102254.91;;;10.05;100.00
21100;BME280;10708;50.824;4.408;2023-02-03T20:42:09;102272.41;;;10.09;100.00
21100;BME280;10708;50.824;4.408;2023-02-03T20:47:16;102254.91;;;10.05;100.00
21100;BME280;10708;50.824;4.408;2023-02-03T20:52:21;102264.66;;;9.89;100.00
21100;BME280;10708;50.824;4.408;2023-02-03T20:57:23;102266.41;;;9.91;100.00
21100;BME280;10708;50.824;4.408;2023-02-03T21:02:27;102261.13;;;9.88;100.00
21100;BME280;10708;50.824;4.408;2023-02-03T21:07:51;102260.41;;;9.67;100.00
21100;BME280;10708;50.824;4.408;2023-02-03T21:12:54;102263.00;;;9.70;100.00
21100;BME280;10708;50.824;4.408;2023-02-03T21:17:58;102270.94;;;9.59;100.00
21100;BME280;10708;50.824;4.408;2023-02-03T21:23:00;102267.38;;;9.75;100.00
21100;BME280;10708;50.824;4.408;2023-02-03T21:28:03;102261.28;;;9.62;100.00
21100;BME280;10708;50.824;4.408;2023-02-03T21:33:28;102269.19;;;9.62;100.00
21100;BME280;10708;50.824;4.408;2023-02-03T21:38:31;102282.38;;;9.50;100.00
21100;BME280;10708;50.824;4.408;2023-02-03T21:43:33;102262.22;;;9.52;100.00
21100;BME280;10708;50.824;4.408;2023-02-03T21:48:38;102263.06;;;9.60;100.00
21100;BME280;10708;50.824;4.408;2023-02-03T21:53:44;102258.63;;;9.73;100.00
21100;BME280;10708;50.824;4.408;2023-02-03T21:58:50;102261.31;;;9.59;100.00
21100;BME280;10708;50.824;4.408;2023-02-03T22:03:55;102264.75;;;9.77;100.00
21100;BME280;10708;50.824;4.408;2023-02-03T22:08:59;102261.25;;;9.70;100.00
21100;BME280;10708;50.824;4.408;2023-02-03T22:14:02;102267.44;;;9.61;100.00
21100;BME280;10708;50.824;4.408;2023-02-03T22:19:06;102260.41;;;9.68;100.00
21100;BME280;10708;50.824;4.408;2023-02-03T22:24:08;102271.75;;;9.73;100.00
21100;BME280;10708;50.824;4.408;2023-02-03T22:29:10;102273.56;;;9.68;100.00
21100;BME280;10708;50.824;4.408;2023-02-03T22:34:14;102284.03;;;9.74;100.00
21100;BME280;10708;50.824;4.408;2023-02-03T22:39:18;102284.88;;;9.82;100.00
21100;BME280;10708;50.824;4.408;2023-02-03T22:44:21;102294.53;;;9.82;100.00
21100;BME280;10708;50.824;4.408;2023-02-03T22:49:35;102297.16;;;9.80;100.00
21100;BME280;10708;50.824;4.408;2023-02-03T22:54:38;102296.28;;;9.86;100.00
21100;BME280;10708;50.824;4.408;2023-02-03T22:59:43;102298.03;;;9.85;100.00
21100;BME280;10708;50.824;4.408;2023-02-03T23:04:47;102303.38;;;9.67;100.00
21100;BME280;10708;50.824;4.408;2023-02-03T23:09:51;102309.56;;;9.57;100.00
21100;BME280;10708;50.824;4.408;2023-02-03T23:14:53;102317.47;;;9.55;100.00
21100;BME280;10708;50.824;4.408;2023-02-03T23:19:57;102313.03;;;9.65;100.00
21100;BME280;10708;50.824;4.408;2023-02-03T23:24:59;102325.22;;;9.78;100.00
21100;BME280;10708;50.824;4.408;2023-02-03T23:30:02;102335.84;;;9.61;100.00
21100;BME280;10708;50.824;4.408;2023-02-03T23:35:07;102327.94;;;9.61;100.00
21100;BME280;10708;50.824;4.408;2023-02-03T23:40:27;102336.72;;;9.67;100.00
21100;BME280;10708;50.824;4.408;2023-02-03T23:45:29;102331.44;;;9.63;100.00
21100;BME280;10708;50.824;4.408;2023-02-03T23:50:33;102333.19;;;9.68;100.00
21100;BME280;10708;50.824;4.408;2023-02-03T23:55:36;102337.63;;;9.58;100.00
